createdAt,value
2017-10-28T00:00:08.277Z,19.32
2017-10-28T00:01:08.485Z,19.30
2017-10-28T00:02:08.340Z,19.27
2017-10-28T00:03:08.666Z,19.31
2017-10-28T00:04:08.417Z,19.25
2017-10-28T00:05:08.428Z,19.28
2017-10-28T00:06:08.465Z,19.30
2017-10-28T00:07:08.491Z,19.34
2017-10-28T00:08:08.542Z,19.27
2017-10-28T00:09:08.570Z,19.38
2017-10-28T00:10:08.884Z,19.34
2017-10-28T00:11:08.613Z,19.38
2017-10-28T00:12:08.646Z,19.32
2017-10-28T00:13:09.001Z,19.27
2017-10-28T00:14:08.707Z,19.35
2017-10-28T00:15:08.756Z,19.32
2017-10-28T00:16:08.774Z,19.34
2017-10-28T00:17:09.045Z,19.31
2017-10-28T00:18:08.887Z,19.32
2017-10-28T00:19:08.913Z,19.35
2017-10-28T00:20:08.916Z,19.30
2017-10-28T00:21:08.936Z,19.31
2017-10-28T00:22:08.949Z,19.31
2017-10-28T00:23:08.996Z,19.25
2017-10-28T00:24:09.343Z,19.27
2017-10-28T00:25:09.093Z,19.21
2017-10-28T00:26:09.099Z,19.15
2017-10-28T00:27:09.358Z,19.21
2017-10-28T00:28:09.147Z,19.15
2017-10-28T00:29:09.210Z,19.21
2017-10-28T00:30:09.228Z,19.20
2017-10-28T00:31:09.476Z,19.17
2017-10-28T00:32:09.312Z,19.23
2017-10-28T00:33:09.283Z,19.25
2017-10-28T00:34:09.317Z,19.23
2017-10-28T00:35:09.364Z,19.17
2017-10-28T00:36:09.471Z,19.31
2017-10-28T00:37:09.408Z,19.25
2017-10-28T00:38:09.685Z,19.27
2017-10-28T00:39:09.465Z,19.25
2017-10-28T00:40:09.517Z,19.23
2017-10-28T00:41:09.539Z,19.27
2017-10-28T00:42:09.576Z,19.30
2017-10-28T00:43:09.611Z,19.32
2017-10-28T00:44:09.626Z,19.25
2017-10-28T00:45:09.969Z,19.27
2017-10-28T00:46:09.683Z,19.28
2017-10-28T00:47:09.730Z,19.28
2017-10-28T00:48:09.749Z,19.34
2017-10-28T00:49:09.788Z,19.23
2017-10-28T00:50:09.816Z,19.30
2017-10-28T00:51:09.830Z,19.35
2017-10-28T00:52:10.194Z,19.30
2017-10-28T00:53:09.893Z,19.24
2017-10-28T00:54:09.942Z,19.30
2017-10-28T00:55:10.024Z,19.28
2017-10-28T00:56:10.012Z,19.39
2017-10-28T00:57:10.041Z,19.24
2017-10-28T00:58:10.066Z,19.25
2017-10-28T00:59:10.343Z,19.25
2017-10-28T01:00:10.132Z,19.28
2017-10-28T01:01:10.190Z,19.25
2017-10-28T01:02:10.200Z,19.25
2017-10-28T01:03:10.201Z,19.20
2017-10-28T01:04:10.254Z,19.13
2017-10-28T01:05:10.303Z,19.09
2017-10-28T01:06:10.559Z,19.06
2017-10-28T01:07:10.499Z,19.10
2017-10-28T01:08:10.369Z,19.10
2017-10-28T01:09:10.396Z,19.09
2017-10-28T01:10:10.431Z,19.09
2017-10-28T01:11:10.473Z,19.09
2017-10-28T01:12:10.758Z,19.01
2017-10-28T01:13:10.540Z,19.02
2017-10-28T01:14:10.552Z,18.99
2017-10-28T01:15:10.616Z,19.01
2017-10-28T01:16:10.597Z,19.02
2017-10-28T01:17:10.839Z,19.06
2017-10-28T01:18:10.980Z,19.05
2017-10-28T01:19:10.706Z,18.91
2017-10-28T01:20:10.725Z,18.97
2017-10-28T01:21:10.782Z,18.89
2017-10-28T01:22:10.857Z,18.90
2017-10-28T01:23:10.808Z,18.91
2017-10-28T01:24:11.108Z,18.97
2017-10-28T01:25:10.896Z,18.99
2017-10-28T01:26:10.925Z,19.01
2017-10-28T01:27:10.965Z,18.97
2017-10-28T01:28:10.991Z,19.01
2017-10-28T01:29:11.014Z,18.97
2017-10-28T01:30:11.346Z,18.97
2017-10-28T01:31:11.261Z,19.05
2017-10-28T01:32:11.082Z,19.02
2017-10-28T01:33:11.134Z,18.99
2017-10-28T01:34:11.183Z,18.97
2017-10-28T01:35:11.181Z,19.02
2017-10-28T01:36:11.502Z,18.90
2017-10-28T01:37:11.362Z,19.01
2017-10-28T01:38:11.340Z,18.94
2017-10-28T01:39:11.318Z,18.97
2017-10-28T01:40:11.342Z,18.94
2017-10-28T01:41:11.379Z,18.97
2017-10-28T01:42:11.639Z,18.94
2017-10-28T01:43:11.464Z,19.01
2017-10-28T01:44:11.462Z,18.99
2017-10-28T01:45:11.505Z,19.09
2017-10-28T01:46:11.594Z,19.06
2017-10-28T01:47:11.548Z,19.12
2017-10-28T01:48:11.929Z,19.07
2017-10-28T01:49:11.601Z,19.09
2017-10-28T01:50:11.645Z,19.10
2017-10-28T01:51:11.678Z,19.13
2017-10-28T01:52:11.688Z,19.12
2017-10-28T01:53:11.721Z,19.10
2017-10-28T01:54:12.075Z,19.06
2017-10-28T01:55:11.830Z,18.99
2017-10-28T01:56:11.838Z,19.05
2017-10-28T01:57:11.840Z,18.97
2017-10-28T01:58:11.888Z,18.99
2017-10-28T01:59:11.917Z,19.02
2017-10-28T02:00:12.207Z,18.96
2017-10-28T02:01:11.995Z,18.94
2017-10-28T02:02:11.996Z,18.97
2017-10-28T02:03:12.036Z,18.99
2017-10-28T02:04:12.070Z,18.99
2017-10-28T02:05:12.087Z,18.94
2017-10-28T02:06:12.415Z,18.87
2017-10-28T02:07:12.161Z,18.89
2017-10-28T02:08:12.202Z,18.99
2017-10-28T02:09:12.230Z,18.90
2017-10-28T02:10:12.232Z,18.94
2017-10-28T02:11:12.294Z,18.84
2017-10-28T02:12:12.665Z,18.90
2017-10-28T02:13:12.388Z,18.83
2017-10-28T02:14:12.361Z,18.90
2017-10-28T02:15:12.403Z,18.86
2017-10-28T02:16:12.438Z,18.90
2017-10-28T02:17:12.473Z,18.93
2017-10-28T02:18:12.749Z,18.90
2017-10-28T02:19:12.521Z,18.86
2017-10-28T02:20:12.549Z,18.86
2017-10-28T02:21:12.612Z,18.99
2017-10-28T02:22:12.618Z,18.94
2017-10-28T02:23:12.754Z,18.87
2017-10-28T02:24:12.936Z,18.84
2017-10-28T02:25:12.688Z,18.89
2017-10-28T02:26:12.785Z,18.93
2017-10-28T02:27:12.762Z,18.84
2017-10-28T02:28:12.795Z,18.90
2017-10-28T02:29:12.874Z,18.87
2017-10-28T02:30:12.881Z,18.84
2017-10-28T02:31:13.166Z,18.83
2017-10-28T02:32:12.896Z,18.90
2017-10-28T02:33:12.930Z,18.90
2017-10-28T02:34:12.958Z,18.83
2017-10-28T02:35:13.035Z,18.87
2017-10-28T02:36:13.085Z,18.83
2017-10-28T02:37:13.062Z,18.86
2017-10-28T02:38:13.341Z,18.76
2017-10-28T02:39:13.122Z,18.76
2017-10-28T02:40:13.135Z,18.83
2017-10-28T02:41:13.189Z,18.82
2017-10-28T02:42:13.211Z,18.72
2017-10-28T02:43:13.222Z,18.76
2017-10-28T02:44:13.277Z,18.75
2017-10-28T02:45:13.615Z,18.68
2017-10-28T02:46:13.353Z,18.69
2017-10-28T02:47:13.360Z,18.66
2017-10-28T02:48:13.375Z,18.65
2017-10-28T02:49:13.423Z,18.66
2017-10-28T02:50:13.461Z,18.62
2017-10-28T02:51:13.469Z,18.60
2017-10-28T02:52:13.900Z,18.65
2017-10-28T02:53:13.530Z,18.57
2017-10-28T02:54:13.586Z,18.60
2017-10-28T02:55:13.605Z,18.62
2017-10-28T02:56:13.777Z,18.54
2017-10-28T02:57:13.652Z,18.59
2017-10-28T02:58:13.671Z,18.62
2017-10-28T02:59:14.030Z,18.57
2017-10-28T03:00:13.741Z,18.62
2017-10-28T03:01:13.764Z,18.59
2017-10-28T03:02:13.796Z,18.59
2017-10-28T03:03:13.887Z,18.56
2017-10-28T03:04:13.850Z,18.62
2017-10-28T03:05:13.881Z,18.60
2017-10-28T03:06:14.210Z,18.57
2017-10-28T03:07:14.089Z,18.60
2017-10-28T03:08:13.969Z,18.59
2017-10-28T03:09:14.040Z,18.57
2017-10-28T03:10:14.097Z,18.57
2017-10-28T03:11:14.069Z,18.60
2017-10-28T03:12:14.105Z,18.62
2017-10-28T03:13:14.458Z,18.62
2017-10-28T03:14:14.167Z,18.56
2017-10-28T03:15:14.210Z,18.54
2017-10-28T03:16:14.229Z,18.59
2017-10-28T03:17:14.235Z,18.51
2017-10-28T03:18:14.297Z,18.50
2017-10-28T03:19:14.351Z,18.64
2017-10-28T03:20:14.638Z,18.59
2017-10-28T03:21:14.370Z,18.62
2017-10-28T03:22:14.395Z,18.50
2017-10-28T03:23:14.446Z,18.50
2017-10-28T03:24:14.483Z,18.56
2017-10-28T03:25:14.483Z,18.51
2017-10-28T03:26:14.524Z,18.56
2017-10-28T03:27:14.852Z,18.47
2017-10-28T03:28:14.586Z,18.53
2017-10-28T03:29:14.608Z,18.50
2017-10-28T03:30:14.622Z,18.47
2017-10-28T03:31:14.648Z,18.56
2017-10-28T03:32:14.727Z,18.46
2017-10-28T03:33:14.737Z,18.53
2017-10-28T03:34:15.063Z,18.51
2017-10-28T03:35:14.781Z,18.54
2017-10-28T03:36:14.804Z,18.57
2017-10-28T03:37:14.848Z,18.44
2017-10-28T03:38:14.951Z,18.42
2017-10-28T03:39:14.925Z,18.44
2017-10-28T03:40:14.929Z,18.47
2017-10-28T03:41:15.195Z,18.42
2017-10-28T03:42:14.994Z,18.46
2017-10-28T03:43:15.002Z,18.49
2017-10-28T03:44:15.258Z,18.50
2017-10-28T03:45:15.076Z,18.35
2017-10-28T03:46:15.093Z,18.42
2017-10-28T03:47:15.446Z,18.46
2017-10-28T03:48:15.164Z,18.44
2017-10-28T03:49:15.197Z,18.47
2017-10-28T03:50:15.271Z,18.44
2017-10-28T03:51:15.240Z,18.38
2017-10-28T03:52:15.587Z,18.25
2017-10-28T03:53:15.560Z,18.29
2017-10-28T03:54:15.363Z,18.26
2017-10-28T03:55:15.367Z,18.31
2017-10-28T03:56:15.395Z,18.29
2017-10-28T03:57:15.411Z,18.32
2017-10-28T03:58:15.445Z,18.31
2017-10-28T03:59:15.784Z,18.29
2017-10-28T04:00:15.519Z,18.29
2017-10-28T04:01:15.553Z,18.28
2017-10-28T04:02:15.666Z,18.32
2017-10-28T04:03:15.589Z,18.28
2017-10-28T04:04:15.622Z,18.31
2017-10-28T04:05:15.965Z,18.25
2017-10-28T04:06:15.699Z,18.28
2017-10-28T04:07:15.699Z,18.29
2017-10-28T04:08:15.762Z,18.23
2017-10-28T04:09:15.760Z,18.31
2017-10-28T04:10:15.803Z,18.29
2017-10-28T04:11:16.256Z,18.28
2017-10-28T04:12:15.858Z,18.25
2017-10-28T04:13:15.906Z,18.23
2017-10-28T04:14:16.004Z,18.20
2017-10-28T04:15:15.965Z,18.21
2017-10-28T04:16:15.969Z,18.23
2017-10-28T04:17:16.308Z,18.17
2017-10-28T04:18:16.039Z,18.26
2017-10-28T04:19:16.099Z,18.23
2017-10-28T04:20:16.090Z,18.20
2017-10-28T04:21:16.135Z,18.16
2017-10-28T04:22:16.135Z,18.19
2017-10-28T04:23:16.418Z,18.19
2017-10-28T04:24:16.217Z,18.17
2017-10-28T04:25:16.228Z,18.14
2017-10-28T04:26:16.286Z,18.14
2017-10-28T04:27:16.291Z,18.11
2017-10-28T04:28:16.330Z,18.14
2017-10-28T04:29:16.665Z,18.05
2017-10-28T04:30:16.388Z,18.14
2017-10-28T04:31:16.408Z,18.05
2017-10-28T04:32:16.446Z,18.14
2017-10-28T04:33:16.472Z,18.17
2017-10-28T04:34:16.489Z,18.10
2017-10-28T04:35:16.847Z,18.07
2017-10-28T04:36:16.562Z,18.13
2017-10-28T04:37:16.573Z,18.07
2017-10-28T04:38:16.629Z,18.07
2017-10-28T04:39:16.664Z,18.10
2017-10-28T04:40:16.662Z,18.11
2017-10-28T04:41:16.953Z,18.14
2017-10-28T04:42:16.839Z,18.11
2017-10-28T04:43:16.771Z,18.13
2017-10-28T04:44:16.821Z,18.09
2017-10-28T04:45:16.806Z,18.13
2017-10-28T04:46:16.882Z,18.07
2017-10-28T04:47:17.211Z,18.10
2017-10-28T04:48:16.963Z,18.11
2017-10-28T04:49:16.941Z,18.13
2017-10-28T04:50:16.986Z,18.14
2017-10-28T04:51:17.037Z,18.09
2017-10-28T04:52:17.146Z,18.09
2017-10-28T04:53:17.373Z,18.10
2017-10-28T04:54:17.086Z,18.07
2017-10-28T04:55:17.095Z,18.10
2017-10-28T04:56:17.127Z,18.05
2017-10-28T04:57:17.157Z,17.96
2017-10-28T04:58:17.192Z,18.04
2017-10-28T04:59:17.231Z,17.98
2017-10-28T05:00:17.545Z,17.99
2017-10-28T05:01:17.275Z,18.07
2017-10-28T05:02:17.310Z,18.10
2017-10-28T05:03:17.346Z,18.04
2017-10-28T05:04:17.467Z,18.10
2017-10-28T05:05:17.428Z,18.02
2017-10-28T05:06:17.422Z,18.02
2017-10-28T05:07:17.716Z,18.02
2017-10-28T05:08:17.724Z,17.98
2017-10-28T05:09:17.560Z,18.11
2017-10-28T05:10:17.533Z,17.99
2017-10-28T05:11:17.595Z,17.96
2017-10-28T05:12:17.657Z,18.04
2017-10-28T05:13:17.643Z,17.96
2017-10-28T05:14:17.953Z,17.94
2017-10-28T05:15:17.694Z,17.95
2017-10-28T05:16:17.776Z,18.05
2017-10-28T05:17:17.735Z,17.99
2017-10-28T05:18:17.791Z,17.95
2017-10-28T05:19:17.816Z,17.99
2017-10-28T05:20:17.826Z,17.95
2017-10-28T05:21:18.190Z,17.94
2017-10-28T05:22:17.914Z,17.91
2017-10-28T05:23:17.911Z,17.92
2017-10-28T05:24:17.938Z,17.94
2017-10-28T05:25:17.974Z,17.96
2017-10-28T05:26:18.115Z,17.86
2017-10-28T05:27:18.058Z,17.83
2017-10-28T05:28:18.469Z,17.92
2017-10-28T05:29:18.091Z,17.89
2017-10-28T05:30:18.139Z,17.84
2017-10-28T05:31:18.243Z,17.81
2017-10-28T05:32:18.196Z,17.81
2017-10-28T05:33:18.240Z,17.81
2017-10-28T05:34:18.247Z,17.81
2017-10-28T05:35:18.721Z,17.77
2017-10-28T05:36:18.300Z,17.84
2017-10-28T05:37:18.335Z,17.84
2017-10-28T05:38:18.360Z,17.84
2017-10-28T05:39:18.456Z,17.83
2017-10-28T05:40:18.406Z,17.81
2017-10-28T05:41:18.454Z,17.83
2017-10-28T05:42:18.794Z,17.84
2017-10-28T05:43:18.517Z,17.77
2017-10-28T05:44:18.537Z,17.86
2017-10-28T05:45:18.572Z,17.87
2017-10-28T05:46:18.575Z,17.79
2017-10-28T05:47:18.602Z,17.81
2017-10-28T05:48:18.688Z,17.84
2017-10-28T05:49:18.916Z,17.80
2017-10-28T05:50:18.752Z,17.81
2017-10-28T05:51:18.723Z,17.77
2017-10-28T05:52:18.751Z,17.80
2017-10-28T05:53:18.781Z,17.76
2017-10-28T05:54:18.829Z,17.80
2017-10-28T05:55:18.836Z,17.71
2017-10-28T05:56:19.196Z,17.80
2017-10-28T05:57:18.922Z,17.65
2017-10-28T05:58:18.938Z,17.71
2017-10-28T06:00:19.103Z,17.71
2017-10-28T06:01:19.016Z,17.73
2017-10-28T06:02:19.060Z,17.66
2017-10-28T06:03:19.388Z,17.77
2017-10-28T06:04:19.098Z,17.74
2017-10-28T06:05:19.146Z,17.71
2017-10-28T06:06:19.225Z,17.71
2017-10-28T06:07:19.280Z,17.70
2017-10-28T06:08:19.230Z,17.68
2017-10-28T06:09:19.263Z,17.71
2017-10-28T06:10:19.562Z,17.74
2017-10-28T06:11:19.323Z,17.71
2017-10-28T06:12:19.358Z,17.63
2017-10-28T06:13:19.375Z,17.70
2017-10-28T06:14:19.403Z,17.71
2017-10-28T06:15:19.411Z,17.73
2017-10-28T06:16:19.707Z,17.68
2017-10-28T06:17:19.471Z,17.66
2017-10-28T06:18:19.515Z,17.68
2017-10-28T06:19:19.546Z,17.65
2017-10-28T06:20:19.584Z,17.70
2017-10-28T06:21:19.582Z,17.66
2017-10-28T06:22:19.916Z,17.70
2017-10-28T06:23:19.717Z,17.70
2017-10-28T06:24:19.685Z,17.70
2017-10-28T06:25:19.701Z,17.58
2017-10-28T06:26:19.754Z,17.71
2017-10-28T06:27:19.756Z,17.70
2017-10-28T06:28:20.041Z,17.73
2017-10-28T06:29:19.870Z,17.68
2017-10-28T06:30:19.858Z,17.71
2017-10-28T06:31:19.875Z,17.68
2017-10-28T06:32:19.899Z,17.70
2017-10-28T06:33:19.931Z,17.70
2017-10-28T06:34:20.265Z,17.71
2017-10-28T06:35:20.008Z,17.66
2017-10-28T06:36:20.019Z,17.65
2017-10-28T06:37:20.043Z,17.70
2017-10-28T06:38:20.072Z,17.70
2017-10-28T06:39:20.120Z,17.71
2017-10-28T06:40:20.443Z,17.71
2017-10-28T06:41:20.180Z,17.62
2017-10-28T06:42:20.209Z,17.66
2017-10-28T06:43:20.233Z,17.65
2017-10-28T06:44:20.317Z,17.62
2017-10-28T06:45:20.298Z,17.68
2017-10-28T06:46:20.566Z,17.66
2017-10-28T06:47:20.392Z,17.66
2017-10-28T06:48:20.376Z,17.71
2017-10-28T06:49:20.395Z,17.70
2017-10-28T06:50:20.437Z,17.71
2017-10-28T06:51:20.461Z,17.71
2017-10-28T06:52:20.752Z,17.73
2017-10-28T06:53:20.508Z,17.81
2017-10-28T06:54:20.548Z,17.81
2017-10-28T06:55:20.560Z,17.94
2017-10-28T06:56:20.614Z,17.86
2017-10-28T06:57:20.636Z,17.96
2017-10-28T06:58:20.955Z,17.95
2017-10-28T06:59:20.701Z,17.96
2017-10-28T07:00:20.778Z,18.05
2017-10-28T07:01:20.744Z,18.11
2017-10-28T07:02:20.781Z,18.13
2017-10-28T07:03:20.838Z,18.10
2017-10-28T07:04:21.114Z,18.13
2017-10-28T07:05:21.035Z,18.14
2017-10-28T07:06:20.892Z,18.16
2017-10-28T07:07:20.931Z,18.28
2017-10-28T07:08:20.954Z,18.23
2017-10-28T07:09:20.989Z,18.31
2017-10-28T07:10:21.280Z,18.28
2017-10-28T07:11:21.181Z,18.31
2017-10-28T07:12:21.064Z,18.32
2017-10-28T07:13:21.089Z,18.32
2017-10-28T07:14:21.141Z,18.47
2017-10-28T07:15:21.167Z,18.36
2017-10-28T07:16:21.498Z,18.47
2017-10-28T07:17:21.227Z,18.41
2017-10-28T07:18:21.239Z,18.49
2017-10-28T07:19:21.265Z,18.56
2017-10-28T07:20:21.331Z,18.47
2017-10-28T07:21:21.380Z,18.54
2017-10-28T07:22:21.675Z,18.49
2017-10-28T07:23:21.392Z,18.53
2017-10-28T07:24:21.462Z,18.64
2017-10-28T07:25:21.447Z,18.64
2017-10-28T07:26:21.579Z,18.54
2017-10-28T07:27:21.532Z,18.53
2017-10-28T07:28:21.563Z,18.56
2017-10-28T07:29:21.893Z,18.68
2017-10-28T07:30:21.614Z,18.60
2017-10-28T07:31:21.628Z,18.64
2017-10-28T07:32:21.671Z,18.74
2017-10-28T07:33:21.709Z,18.62
2017-10-28T07:34:21.749Z,18.75
2017-10-28T07:35:21.774Z,18.76
2017-10-28T07:36:22.096Z,18.75
2017-10-28T07:37:21.812Z,18.72
2017-10-28T07:38:21.835Z,18.84
2017-10-28T07:39:21.867Z,18.78
2017-10-28T07:40:21.913Z,18.79
2017-10-28T07:41:21.947Z,18.82
2017-10-28T07:42:22.387Z,18.82
2017-10-28T07:43:22.307Z,18.89
2017-10-28T07:44:22.035Z,18.75
2017-10-28T07:45:22.063Z,18.76
2017-10-28T07:46:22.146Z,18.87
2017-10-28T07:47:22.107Z,18.86
2017-10-28T07:48:22.156Z,18.87
2017-10-28T07:49:22.365Z,18.84
2017-10-28T07:50:22.552Z,18.86
2017-10-28T07:51:22.262Z,18.91
2017-10-28T07:52:22.259Z,18.83
2017-10-28T07:53:22.301Z,18.91
2017-10-28T07:54:22.338Z,18.93
2017-10-28T07:55:22.357Z,18.90
2017-10-28T07:56:22.393Z,18.91
2017-10-28T07:57:22.727Z,18.93
2017-10-28T07:58:22.454Z,18.96
2017-10-28T07:59:22.489Z,18.93
2017-10-28T08:00:22.663Z,18.87
2017-10-28T08:01:22.545Z,18.87
2017-10-28T08:02:22.578Z,18.93
2017-10-28T08:09:22.794Z,18.91
2017-10-28T08:10:22.852Z,18.87
2017-10-28T08:11:22.875Z,18.89
2017-10-28T08:12:22.905Z,18.99
2017-10-28T08:13:22.917Z,18.93
2017-10-28T08:14:22.940Z,18.94
2017-10-28T08:15:23.219Z,18.93
2017-10-28T08:16:23.001Z,18.90
2017-10-28T08:17:23.223Z,18.96
2017-10-28T08:18:23.065Z,18.94
2017-10-28T08:19:23.089Z,18.87
2017-10-28T08:20:23.131Z,18.91
2017-10-28T08:21:23.137Z,18.89
2017-10-28T08:22:23.416Z,18.97
2017-10-28T08:23:23.301Z,18.90
2017-10-28T08:24:23.240Z,19.02
2017-10-28T08:25:23.263Z,18.96
2017-10-28T08:26:23.285Z,19.05
2017-10-28T08:27:23.344Z,19.02
2017-10-28T08:28:23.401Z,18.96
2017-10-28T08:29:23.700Z,19.01
2017-10-28T08:30:23.577Z,19.07
2017-10-28T08:31:23.486Z,18.99
2017-10-28T08:32:23.485Z,19.09
2017-10-28T08:33:23.520Z,18.99
2017-10-28T08:34:23.545Z,18.97
2017-10-28T08:35:23.560Z,19.06
2017-10-28T08:36:23.908Z,19.05
2017-10-28T08:37:23.681Z,19.06
2017-10-28T08:38:23.657Z,19.09
2017-10-28T08:39:23.697Z,19.12
2017-10-28T08:40:23.716Z,19.17
2017-10-28T08:41:23.756Z,19.12
2017-10-28T08:42:23.777Z,19.16
2017-10-28T08:43:24.119Z,19.17
2017-10-28T08:44:23.835Z,19.16
2017-10-28T08:45:24.695Z,19.15
2017-10-28T08:46:23.898Z,19.23
2017-10-28T08:47:23.954Z,19.23
2017-10-28T08:48:23.975Z,19.23
2017-10-28T08:49:24.320Z,19.30
2017-10-28T08:50:24.037Z,19.23
2017-10-28T08:51:24.070Z,19.28
2017-10-28T08:52:24.136Z,19.27
2017-10-28T08:53:24.229Z,19.20
2017-10-28T08:54:24.282Z,19.30
2017-10-28T08:55:24.669Z,19.27
2017-10-28T08:56:24.233Z,19.28
2017-10-28T08:57:24.265Z,19.28
2017-10-28T08:58:24.290Z,19.30
2017-10-28T08:59:24.551Z,19.28
2017-10-28T09:00:24.339Z,19.28
2017-10-28T09:01:24.682Z,19.30
2017-10-28T09:02:24.521Z,19.24
2017-10-28T09:03:24.449Z,19.32
2017-10-28T09:04:24.458Z,19.31
2017-10-28T09:05:24.494Z,19.28
2017-10-28T09:06:24.706Z,19.34
2017-10-28T09:07:24.854Z,19.30
2017-10-28T09:08:24.589Z,19.30
2017-10-28T09:09:24.611Z,19.28
2017-10-28T09:10:24.635Z,19.31
2017-10-28T09:11:24.656Z,19.32
2017-10-28T09:12:24.855Z,19.30
2017-10-28T09:13:25.052Z,19.32
2017-10-28T09:14:24.771Z,19.34
2017-10-28T09:15:24.781Z,19.30
2017-10-28T09:16:24.806Z,19.30
2017-10-28T09:17:24.843Z,19.27
2017-10-28T09:18:24.885Z,19.30
2017-10-28T09:19:25.206Z,19.25
2017-10-28T09:20:24.952Z,19.27
2017-10-28T09:21:25.097Z,19.35
2017-10-28T09:22:25.011Z,19.39
2017-10-28T09:23:25.028Z,19.34
2017-10-28T09:24:25.062Z,19.34
2017-10-28T09:25:25.468Z,19.40
2017-10-28T09:26:25.180Z,19.38
2017-10-28T09:27:25.261Z,19.45
2017-10-28T09:28:25.199Z,19.38
2017-10-28T09:29:25.221Z,19.39
2017-10-28T09:30:25.244Z,19.42
2017-10-28T09:31:25.639Z,19.39
2017-10-28T09:32:25.580Z,19.45
2017-10-28T09:33:25.957Z,19.43
2017-10-28T09:34:25.385Z,19.45
2017-10-28T09:35:25.425Z,19.43
2017-10-28T09:36:25.450Z,19.38
2017-10-28T09:37:25.485Z,19.45
2017-10-28T09:38:25.791Z,19.47
2017-10-28T09:39:25.544Z,19.43
2017-10-28T09:40:25.546Z,19.39
2017-10-28T09:41:25.620Z,19.43
2017-10-28T09:42:25.708Z,19.47
2017-10-28T09:43:25.691Z,19.46
2017-10-28T09:44:25.717Z,19.47
2017-10-28T09:45:25.974Z,19.40
2017-10-28T09:46:25.731Z,19.40
2017-10-28T09:47:25.762Z,19.47
2017-10-28T09:48:25.890Z,19.42
2017-10-28T09:49:25.845Z,19.50
2017-10-28T09:50:25.901Z,19.45
2017-10-28T09:51:25.879Z,19.47
2017-10-28T09:52:26.184Z,19.43
2017-10-28T09:53:25.976Z,19.42
2017-10-28T09:54:25.973Z,19.47
2017-10-28T09:55:26.024Z,19.42
2017-10-28T09:56:26.056Z,19.49
2017-10-28T09:57:26.065Z,19.53
2017-10-28T09:58:26.245Z,19.58
2017-10-28T09:59:26.437Z,19.55
2017-10-28T10:00:26.158Z,19.58
2017-10-28T10:01:26.222Z,19.50
2017-10-28T10:02:26.236Z,19.55
2017-10-28T10:03:26.258Z,19.58
2017-10-28T10:04:26.400Z,19.55
2017-10-28T10:05:26.329Z,19.47
2017-10-28T10:06:26.702Z,19.46
2017-10-28T10:07:26.375Z,19.50
2017-10-28T10:08:26.401Z,19.47
2017-10-28T10:09:26.449Z,19.50
2017-10-28T10:10:26.483Z,19.46
2017-10-28T10:11:26.505Z,19.52
2017-10-28T10:12:26.545Z,19.55
2017-10-28T10:13:26.873Z,19.50
2017-10-28T10:14:26.612Z,19.49
2017-10-28T10:15:26.617Z,19.53
2017-10-28T10:16:26.672Z,19.49
2017-10-28T10:17:26.699Z,19.49
2017-10-28T10:18:26.729Z,19.46
2017-10-28T10:19:26.934Z,19.42
2017-10-28T10:20:27.021Z,19.49
2017-10-28T10:21:26.806Z,19.53
2017-10-28T10:22:26.900Z,19.49
2017-10-28T10:23:26.863Z,19.50
2017-10-28T10:24:26.896Z,19.53
2017-10-28T10:25:26.946Z,19.57
2017-10-28T10:26:26.956Z,19.53
2017-10-28T10:27:27.254Z,19.55
2017-10-28T10:28:27.014Z,19.50
2017-10-28T10:29:27.067Z,19.47
2017-10-28T10:30:27.096Z,19.57
2017-10-28T10:31:27.112Z,19.53
2017-10-28T10:32:27.186Z,19.52
2017-10-28T10:33:27.618Z,19.47
2017-10-28T10:34:27.200Z,19.52
2017-10-28T10:35:27.252Z,19.47
2017-10-28T10:36:27.261Z,19.47
2017-10-28T10:37:27.310Z,19.55
2017-10-28T10:38:27.365Z,19.43
2017-10-28T10:39:27.668Z,19.47
2017-10-28T10:40:27.579Z,19.49
2017-10-28T10:41:27.504Z,19.52
2017-10-28T10:42:28.759Z,19.50
2017-10-28T10:43:27.631Z,19.53
2017-10-28T10:44:27.561Z,19.50
2017-10-28T10:45:27.853Z,19.42
2017-10-28T10:46:27.650Z,19.46
2017-10-28T10:47:27.653Z,19.50
2017-10-28T10:48:27.658Z,19.53
2017-10-28T10:49:27.755Z,19.53
2017-10-28T10:50:27.704Z,19.57
2017-10-28T10:51:28.026Z,19.52
2017-10-28T10:52:27.880Z,19.52
2017-10-28T10:53:27.838Z,19.55
2017-10-28T10:54:27.894Z,19.49
2017-10-28T10:55:27.971Z,19.53
2017-10-28T10:56:27.893Z,19.49
2017-10-28T10:57:28.226Z,19.55
2017-10-28T10:58:27.968Z,19.53
2017-10-28T10:59:28.177Z,19.53
2017-10-28T11:00:28.023Z,19.50
2017-10-28T11:01:28.051Z,19.52
2017-10-28T11:02:28.090Z,19.52
2017-10-28T11:03:28.393Z,19.57
2017-10-28T11:04:28.179Z,19.58
2017-10-28T11:05:28.211Z,19.57
2017-10-28T11:06:28.307Z,19.57
2017-10-28T11:07:28.239Z,19.52
2017-10-28T11:08:28.245Z,19.52
2017-10-28T11:09:28.576Z,19.52
2017-10-28T11:10:28.326Z,19.52
2017-10-28T11:11:28.348Z,19.46
2017-10-28T11:12:28.726Z,19.58
2017-10-28T11:13:28.404Z,19.49
2017-10-28T11:14:28.424Z,19.52
2017-10-28T11:15:28.957Z,19.49
2017-10-28T11:16:28.503Z,19.65
2017-10-28T11:17:28.539Z,19.55
2017-10-28T11:18:28.574Z,19.62
2017-10-28T11:19:28.596Z,19.55
2017-10-28T11:20:29.190Z,19.55
2017-10-28T11:21:28.971Z,19.60
2017-10-28T11:22:28.680Z,19.55
2017-10-28T11:23:29.093Z,19.49
2017-10-28T11:24:28.736Z,19.53
2017-10-28T11:25:28.770Z,19.58
2017-10-28T11:26:28.808Z,19.58
2017-10-28T11:27:29.155Z,19.57
2017-10-28T11:28:28.858Z,19.55
2017-10-28T11:29:28.922Z,19.58
2017-10-28T11:30:28.941Z,19.64
2017-10-28T11:31:28.960Z,19.57
2017-10-28T11:32:29.004Z,19.55
2017-10-28T11:33:29.014Z,19.60
2017-10-28T11:34:29.362Z,19.53
2017-10-28T11:35:29.095Z,19.61
2017-10-28T11:36:29.108Z,19.62
2017-10-28T11:37:29.135Z,19.53
2017-10-28T11:38:29.194Z,19.52
2017-10-28T11:39:29.272Z,19.61
2017-10-28T11:40:29.251Z,19.49
2017-10-28T11:41:29.558Z,19.62
2017-10-28T11:42:29.308Z,19.64
2017-10-28T11:43:29.332Z,19.57
2017-10-28T11:44:29.368Z,19.49
2017-10-28T11:45:29.399Z,19.61
2017-10-28T11:46:29.411Z,19.62
2017-10-28T11:47:29.458Z,19.52
2017-10-28T11:48:29.738Z,19.49
2017-10-28T11:49:29.531Z,19.55
2017-10-28T11:50:29.541Z,19.57
2017-10-28T11:51:29.565Z,19.60
2017-10-28T11:52:29.616Z,19.52
2017-10-28T11:53:29.648Z,19.62
2017-10-28T11:54:29.676Z,19.58
2017-10-28T11:55:29.966Z,19.49
2017-10-28T11:56:29.763Z,19.60
2017-10-28T11:57:29.763Z,19.53
2017-10-28T11:58:29.777Z,19.60
2017-10-28T11:59:29.830Z,19.57
2017-10-28T12:00:29.860Z,19.53
2017-10-28T12:01:29.893Z,19.55
2017-10-28T12:02:30.261Z,19.58
2017-10-28T12:03:29.953Z,19.61
2017-10-28T12:04:29.963Z,19.53
2017-10-28T12:05:30.013Z,19.57
2017-10-28T12:06:30.040Z,19.57
2017-10-28T12:07:30.059Z,19.71
2017-10-28T12:08:30.154Z,19.67
2017-10-28T12:09:30.439Z,19.60
2017-10-28T12:10:30.165Z,19.62
2017-10-28T12:11:30.197Z,19.75
2017-10-28T12:12:30.229Z,19.71
2017-10-28T12:13:30.366Z,19.70
2017-10-28T12:14:30.297Z,19.67
2017-10-28T12:15:30.305Z,19.71
2017-10-28T12:16:30.663Z,19.72
2017-10-28T12:17:30.386Z,19.68
2017-10-28T12:18:30.399Z,19.67
2017-10-28T12:19:30.461Z,19.71
2017-10-28T12:20:30.479Z,19.68
2017-10-28T12:21:30.504Z,19.75
2017-10-28T12:22:30.544Z,19.70
2017-10-28T12:23:30.850Z,19.60
2017-10-28T12:24:30.601Z,19.61
2017-10-28T12:25:30.613Z,19.72
2017-10-28T12:26:30.664Z,19.70
2017-10-28T12:27:30.675Z,19.68
2017-10-28T12:28:30.728Z,19.80
2017-10-28T12:29:30.948Z,19.71
2017-10-28T12:30:31.040Z,19.68
2017-10-28T12:31:30.800Z,19.76
2017-10-28T12:32:30.826Z,19.71
2017-10-28T12:33:30.878Z,19.68
2017-10-28T12:34:30.907Z,19.72
2017-10-28T12:35:30.938Z,19.79
2017-10-28T12:36:30.971Z,19.76
2017-10-28T12:37:31.273Z,19.72
2017-10-28T12:38:31.069Z,19.72
2017-10-28T12:39:31.057Z,19.65
2017-10-28T12:40:31.080Z,19.75
2017-10-28T12:41:31.128Z,19.76
2017-10-28T12:42:31.155Z,19.68
2017-10-28T12:43:31.168Z,19.78
2017-10-28T12:44:31.528Z,19.68
2017-10-28T12:45:31.303Z,19.65
2017-10-28T12:46:31.270Z,19.72
2017-10-28T12:47:31.310Z,19.62
2017-10-28T12:48:31.328Z,19.72
2017-10-28T12:49:31.355Z,19.67
2017-10-28T12:50:31.691Z,19.70
2017-10-28T12:51:31.455Z,19.72
2017-10-28T12:52:31.465Z,19.60
2017-10-28T12:53:31.480Z,19.76
2017-10-28T12:54:31.519Z,19.70
2017-10-28T12:55:31.542Z,19.68
2017-10-28T12:56:31.899Z,19.68
2017-10-28T12:57:31.619Z,19.62
2017-10-28T12:58:31.646Z,19.68
2017-10-28T12:59:32.131Z,19.72